sensor_id;sensor_type;location;lat;lon;timestamp;P1;durP1;ratioP1;P2;durP2;ratioP2
59998;SDS011;45859;51.378;6.736;2023-03-19T00:01:28;9.23;;;5.97;;
59998;SDS011;45859;51.378;6.736;2023-03-19T00:03:53;7.43;;;4.90;;
59998;SDS011;45859;51.378;6.736;2023-03-19T00:06:20;7.20;;;4.40;;
59998;SDS011;45859;51.378;6.736;2023-03-19T00:08:46;6.30;;;4.73;;
59998;SDS011;45859;51.378;6.736;2023-03-19T00:11:12;5.10;;;4.60;;
59998;SDS011;45859;51.378;6.736;2023-03-19T00:13:38;6.87;;;5.10;;
59998;SDS011;45859;51.378;6.736;2023-03-19T00:16:04;6.67;;;4.70;;
59998;SDS011;45859;51.378;6.736;2023-03-19T00:18:31;8.43;;;4.50;;
59998;SDS011;45859;51.378;6.736;2023-03-19T00:20:57;8.50;;;5.43;;
59998;SDS011;45859;51.378;6.736;2023-03-19T00:23:23;5.37;;;4.17;;
59998;SDS011;45859;51.378;6.736;2023-03-19T00:25:49;6.93;;;4.77;;
59998;SDS011;45859;51.378;6.736;2023-03-19T00:28:14;6.47;;;4.77;;
59998;SDS011;45859;51.378;6.736;2023-03-19T00:30:41;6.27;;;4.70;;
59998;SDS011;45859;51.378;6.736;2023-03-19T00:33:08;6.20;;;4.87;;
59998;SDS011;45859;51.378;6.736;2023-03-19T00:35:34;7.77;;;5.73;;
59998;SDS011;45859;51.378;6.736;2023-03-19T00:38:00;6.33;;;5.43;;
59998;SDS011;45859;51.378;6.736;2023-03-19T00:40:25;8.97;;;5.63;;
59998;SDS011;45859;51.378;6.736;2023-03-19T00:42:51;9.10;;;6.00;;
59998;SDS011;45859;51.378;6.736;2023-03-19T00:45:17;8.30;;;6.07;;
59998;SDS011;45859;51.378;6.736;2023-03-19T00:47:42;6.57;;;5.73;;
59998;SDS011;45859;51.378;6.736;2023-03-19T00:50:08;6.07;;;5.40;;
59998;SDS011;45859;51.378;6.736;2023-03-19T00:52:34;6.87;;;5.33;;
59998;SDS011;45859;51.378;6.736;2023-03-19T00:55:00;7.20;;;5.50;;
59998;SDS011;45859;51.378;6.736;2023-03-19T00:57:26;5.77;;;2.90;;
59998;SDS011;45859;51.378;6.736;2023-03-19T00:59:51;5.43;;;2.83;;
59998;SDS011;45859;51.378;6.736;2023-03-19T01:02:17;7.57;;;5.60;;
59998;SDS011;45859;51.378;6.736;2023-03-19T01:04:42;8.40;;;5.70;;
59998;SDS011;45859;51.378;6.736;2023-03-19T01:07:08;8.50;;;5.57;;
59998;SDS011;45859;51.378;6.736;2023-03-19T01:09:34;7.23;;;4.70;;
59998;SDS011;45859;51.378;6.736;2023-03-19T01:12:00;5.70;;;2.80;;
59998;SDS011;45859;51.378;6.736;2023-03-19T01:14:28;6.30;;;4.77;;
59998;SDS011;45859;51.378;6.736;2023-03-19T01:16:54;7.20;;;4.60;;
59998;SDS011;45859;51.378;6.736;2023-03-19T01:19:20;9.13;;;5.10;;
59998;SDS011;45859;51.378;6.736;2023-03-19T01:21:46;4.50;;;1.67;;
59998;SDS011;45859;51.378;6.736;2023-03-19T01:24:13;6.07;;;4.70;;
59998;SDS011;45859;51.378;6.736;2023-03-19T01:26:40;6.60;;;4.57;;
59998;SDS011;45859;51.378;6.736;2023-03-19T01:29:06;6.30;;;2.70;;
59998;SDS011;45859;51.378;6.736;2023-03-19T01:31:32;3.47;;;2.47;;
59998;SDS011;45859;51.378;6.736;2023-03-19T01:33:58;6.13;;;5.00;;
59998;SDS011;45859;51.378;6.736;2023-03-19T01:36:24;3.50;;;2.30;;
59998;SDS011;45859;51.378;6.736;2023-03-19T01:38:50;2.67;;;1.63;;
59998;SDS011;45859;51.378;6.736;2023-03-19T01:41:16;8.63;;;6.10;;
59998;SDS011;45859;51.378;6.736;2023-03-19T01:43:42;7.60;;;6.67;;
59998;SDS011;45859;51.378;6.736;2023-03-19T01:46:13;7.30;;;6.60;;
59998;SDS011;45859;51.378;6.736;2023-03-19T01:48:55;12.67;;;6.97;;
59998;SDS011;45859;51.378;6.736;2023-03-19T01:51:27;8.83;;;6.63;;
59998;SDS011;45859;51.378;6.736;2023-03-19T01:53:59;8.17;;;6.13;;
59998;SDS011;45859;51.378;6.736;2023-03-19T01:56:31;5.40;;;3.50;;
59998;SDS011;45859;51.378;6.736;2023-03-19T02:01:27;7.13;;;3.10;;
59998;SDS011;45859;51.378;6.736;2023-03-19T02:03:58;12.20;;;3.40;;
59998;SDS011;45859;51.378;6.736;2023-03-19T02:06:24;3.97;;;2.70;;
59998;SDS011;45859;51.378;6.736;2023-03-19T02:08:50;6.07;;;3.13;;
59998;SDS011;45859;51.378;6.736;2023-03-19T02:11:17;8.30;;;6.40;;
59998;SDS011;45859;51.378;6.736;2023-03-19T02:13:43;6.87;;;3.37;;
59998;SDS011;45859;51.378;6.736;2023-03-19T02:16:10;11.30;;;6.47;;
59998;SDS011;45859;51.378;6.736;2023-03-19T02:18:36;8.10;;;6.43;;
59998;SDS011;45859;51.378;6.736;2023-03-19T02:26:09;7.33;;;5.97;;
59998;SDS011;45859;51.378;6.736;2023-03-19T02:28:38;9.63;;;6.67;;
59998;SDS011;45859;51.378;6.736;2023-03-19T02:31:06;12.53;;;6.80;;
59998;SDS011;45859;51.378;6.736;2023-03-19T02:33:32;9.23;;;6.70;;
59998;SDS011;45859;51.378;6.736;2023-03-19T02:35:58;8.37;;;6.30;;
59998;SDS011;45859;51.378;6.736;2023-03-19T02:38:25;5.27;;;3.43;;
59998;SDS011;45859;51.378;6.736;2023-03-19T02:40:58;5.83;;;3.50;;
59998;SDS011;45859;51.378;6.736;2023-03-19T02:43:26;6.97;;;5.80;;
59998;SDS011;45859;51.378;6.736;2023-03-19T02:45:52;8.80;;;5.93;;
59998;SDS011;45859;51.378;6.736;2023-03-19T02:48:18;7.83;;;5.90;;
59998;SDS011;45859;51.378;6.736;2023-03-19T02:50:44;7.03;;;5.43;;
59998;SDS011;45859;51.378;6.736;2023-03-19T02:53:10;7.57;;;6.00;;
59998;SDS011;45859;51.378;6.736;2023-03-19T02:55:36;4.47;;;2.37;;
59998;SDS011;45859;51.378;6.736;2023-03-19T02:58:01;7.07;;;6.17;;
59998;SDS011;45859;51.378;6.736;2023-03-19T03:00:27;6.73;;;6.00;;
59998;SDS011;45859;51.378;6.736;2023-03-19T03:02:54;3.57;;;2.97;;
59998;SDS011;45859;51.378;6.736;2023-03-19T03:05:21;4.50;;;2.90;;
59998;SDS011;45859;51.378;6.736;2023-03-19T03:07:47;7.57;;;5.77;;
59998;SDS011;45859;51.378;6.736;2023-03-19T03:10:13;7.70;;;6.10;;
59998;SDS011;45859;51.378;6.736;2023-03-19T03:12:39;7.40;;;6.10;;
59998;SDS011;45859;51.378;6.736;2023-03-19T03:15:06;7.63;;;5.73;;
59998;SDS011;45859;51.378;6.736;2023-03-19T03:17:32;8.00;;;5.87;;
59998;SDS011;45859;51.378;6.736;2023-03-19T03:20:02;9.57;;;6.33;;
59998;SDS011;45859;51.378;6.736;2023-03-19T03:22:28;9.10;;;6.47;;
59998;SDS011;45859;51.378;6.736;2023-03-19T03:24:54;7.20;;;5.80;;
59998;SDS011;45859;51.378;6.736;2023-03-19T03:27:20;8.03;;;6.30;;
59998;SDS011;45859;51.378;6.736;2023-03-19T03:29:45;7.70;;;6.13;;
59998;SDS011;45859;51.378;6.736;2023-03-19T03:32:11;8.87;;;6.23;;
59998;SDS011;45859;51.378;6.736;2023-03-19T03:34:37;7.50;;;5.90;;
59998;SDS011;45859;51.378;6.736;2023-03-19T03:37:03;8.30;;;6.20;;
59998;SDS011;45859;51.378;6.736;2023-03-19T03:39:29;8.70;;;6.40;;
59998;SDS011;45859;51.378;6.736;2023-03-19T03:41:54;8.20;;;5.77;;
59998;SDS011;45859;51.378;6.736;2023-03-19T03:44:20;7.60;;;5.70;;
59998;SDS011;45859;51.378;6.736;2023-03-19T03:46:45;7.00;;;6.10;;
59998;SDS011;45859;51.378;6.736;2023-03-19T03:49:12;8.47;;;5.30;;
59998;SDS011;45859;51.378;6.736;2023-03-19T03:51:37;8.63;;;5.57;;
59998;SDS011;45859;51.378;6.736;2023-03-19T03:54:03;7.70;;;6.03;;
59998;SDS011;45859;51.378;6.736;2023-03-19T03:56:29;7.03;;;5.50;;
59998;SDS011;45859;51.378;6.736;2023-03-19T03:58:55;8.80;;;6.40;;
59998;SDS011;45859;51.378;6.736;2023-03-19T04:01:21;7.00;;;5.77;;
59998;SDS011;45859;51.378;6.736;2023-03-19T04:03:47;9.60;;;6.07;;
59998;SDS011;45859;51.378;6.736;2023-03-19T04:06:13;8.67;;;4.90;;
59998;SDS011;45859;51.378;6.736;2023-03-19T04:08:41;6.87;;;5.43;;
59998;SDS011;45859;51.378;6.736;2023-03-19T04:11:07;7.27;;;5.20;;
59998;SDS011;45859;51.378;6.736;2023-03-19T04:13:33;8.50;;;5.40;;
59998;SDS011;45859;51.378;6.736;2023-03-19T04:16:02;7.70;;;4.77;;
59998;SDS011;45859;51.378;6.736;2023-03-19T04:18:28;6.47;;;5.00;;
59998;SDS011;45859;51.378;6.736;2023-03-19T04:20:54;7.47;;;4.50;;
59998;SDS011;45859;51.378;6.736;2023-03-19T04:23:21;7.93;;;5.03;;
59998;SDS011;45859;51.378;6.736;2023-03-19T04:25:46;4.77;;;4.10;;
59998;SDS011;45859;51.378;6.736;2023-03-19T04:28:12;6.07;;;4.27;;
59998;SDS011;45859;51.378;6.736;2023-03-19T04:30:38;7.70;;;4.20;;
59998;SDS011;45859;51.378;6.736;2023-03-19T04:33:03;5.87;;;4.13;;
59998;SDS011;45859;51.378;6.736;2023-03-19T04:35:29;4.93;;;3.80;;
59998;SDS011;45859;51.378;6.736;2023-03-19T04:37:55;6.10;;;3.50;;
59998;SDS011;45859;51.378;6.736;2023-03-19T04:40:20;6.87;;;3.97;;
59998;SDS011;45859;51.378;6.736;2023-03-19T04:42:46;7.50;;;3.97;;
59998;SDS011;45859;51.378;6.736;2023-03-19T04:45:12;5.23;;;3.73;;
59998;SDS011;45859;51.378;6.736;2023-03-19T04:47:37;5.43;;;3.80;;
59998;SDS011;45859;51.378;6.736;2023-03-19T04:50:04;6.17;;;3.83;;
59998;SDS011;45859;51.378;6.736;2023-03-19T04:52:31;4.93;;;3.33;;
59998;SDS011;45859;51.378;6.736;2023-03-19T04:54:57;6.20;;;3.80;;
59998;SDS011;45859;51.378;6.736;2023-03-19T04:57:23;5.30;;;3.50;;
59998;SDS011;45859;51.378;6.736;2023-03-19T04:59:48;6.50;;;4.00;;
59998;SDS011;45859;51.378;6.736;2023-03-19T05:02:14;5.97;;;3.63;;
59998;SDS011;45859;51.378;6.736;2023-03-19T05:04:40;5.17;;;3.60;;
59998;SDS011;45859;51.378;6.736;2023-03-19T05:07:05;4.47;;;3.83;;
59998;SDS011;45859;51.378;6.736;2023-03-19T05:09:31;4.30;;;3.60;;
59998;SDS011;45859;51.378;6.736;2023-03-19T05:11:57;4.73;;;3.70;;
59998;SDS011;45859;51.378;6.736;2023-03-19T05:14:23;5.97;;;3.80;;
59998;SDS011;45859;51.378;6.736;2023-03-19T05:16:49;5.93;;;4.37;;
59998;SDS011;45859;51.378;6.736;2023-03-19T05:19:15;4.87;;;3.40;;
59998;SDS011;45859;51.378;6.736;2023-03-19T05:21:41;5.43;;;3.63;;
59998;SDS011;45859;51.378;6.736;2023-03-19T05:24:07;4.23;;;3.50;;
59998;SDS011;45859;51.378;6.736;2023-03-19T05:26:32;6.20;;;3.67;;
59998;SDS011;45859;51.378;6.736;2023-03-19T05:28:58;7.13;;;4.00;;
59998;SDS011;45859;51.378;6.736;2023-03-19T05:31:24;6.77;;;3.87;;
59998;SDS011;45859;51.378;6.736;2023-03-19T05:33:50;4.10;;;3.73;;
59998;SDS011;45859;51.378;6.736;2023-03-19T05:36:16;5.53;;;3.70;;
59998;SDS011;45859;51.378;6.736;2023-03-19T05:38:43;6.77;;;4.20;;
59998;SDS011;45859;51.378;6.736;2023-03-19T05:41:08;4.93;;;3.73;;
59998;SDS011;45859;51.378;6.736;2023-03-19T05:43:34;5.57;;;4.10;;
59998;SDS011;45859;51.378;6.736;2023-03-19T05:45:59;6.63;;;4.90;;
59998;SDS011;45859;51.378;6.736;2023-03-19T05:48:25;5.67;;;4.10;;
59998;SDS011;45859;51.378;6.736;2023-03-19T05:50:51;7.23;;;4.53;;
59998;SDS011;45859;51.378;6.736;2023-03-19T05:53:17;7.07;;;4.73;;
59998;SDS011;45859;51.378;6.736;2023-03-19T05:55:43;7.67;;;5.30;;
59998;SDS011;45859;51.378;6.736;2023-03-19T05:58:09;3.93;;;2.60;;
59998;SDS011;45859;51.378;6.736;2023-03-19T06:00:34;3.87;;;2.40;;
59998;SDS011;45859;51.378;6.736;2023-03-19T06:03:00;7.50;;;6.00;;
59998;SDS011;45859;51.378;6.736;2023-03-19T06:05:26;6.23;;;5.60;;
59998;SDS011;45859;51.378;6.736;2023-03-19T06:07:52;8.30;;;5.80;;
59998;SDS011;45859;51.378;6.736;2023-03-19T06:10:17;8.67;;;6.03;;
59998;SDS011;45859;51.378;6.736;2023-03-19T06:12:43;9.27;;;6.20;;
59998;SDS011;45859;51.378;6.736;2023-03-19T06:15:09;6.80;;;6.10;;
59998;SDS011;45859;51.378;6.736;2023-03-19T06:17:35;8.40;;;6.20;;
59998;SDS011;45859;51.378;6.736;2023-03-19T06:20:01;8.53;;;6.83;;
59998;SDS011;45859;51.378;6.736;2023-03-19T06:22:27;7.90;;;1.97;;
59998;SDS011;45859;51.378;6.736;2023-03-19T06:24:52;7.60;;;6.40;;
59998;SDS011;45859;51.378;6.736;2023-03-19T06:27:18;8.07;;;6.20;;
59998;SDS011;45859;51.378;6.736;2023-03-19T06:29:44;7.43;;;6.67;;
59998;SDS011;45859;51.378;6.736;2023-03-19T06:32:10;8.73;;;6.70;;
59998;SDS011;45859;51.378;6.736;2023-03-19T06:34:36;8.23;;;6.90;;
59998;SDS011;45859;51.378;6.736;2023-03-19T06:37:02;8.33;;;7.23;;
59998;SDS011;45859;51.378;6.736;2023-03-19T06:39:28;7.73;;;6.87;;
59998;SDS011;45859;51.378;6.736;2023-03-19T06:41:53;7.57;;;6.87;;
59998;SDS011;45859;51.378;6.736;2023-03-19T06:44:19;4.30;;;3.10;;
59998;SDS011;45859;51.378;6.736;2023-03-19T06:46:45;5.17;;;3.07;;
59998;SDS011;45859;51.378;6.736;2023-03-19T06:49:10;7.03;;;6.33;;
59998;SDS011;45859;51.378;6.736;2023-03-19T06:51:36;4.37;;;3.00;;
59998;SDS011;45859;51.378;6.736;2023-03-19T06:54:02;5.07;;;2.67;;
59998;SDS011;45859;51.378;6.736;2023-03-19T06:56:28;2.93;;;1.80;;
59998;SDS011;45859;51.378;6.736;2023-03-19T06:58:53;7.47;;;2.97;;
59998;SDS011;45859;51.378;6.736;2023-03-19T07:01:19;8.43;;;5.87;;
59998;SDS011;45859;51.378;6.736;2023-03-19T07:03:45;6.80;;;6.10;;
59998;SDS011;45859;51.378;6.736;2023-03-19T07:06:11;7.10;;;6.40;;
59998;SDS011;45859;51.378;6.736;2023-03-19T07:08:37;6.10;;;5.50;;
59998;SDS011;45859;51.378;6.736;2023-03-19T07:11:03;7.97;;;6.23;;
59998;SDS011;45859;51.378;6.736;2023-03-19T07:13:30;7.23;;;6.10;;
59998;SDS011;45859;51.378;6.736;2023-03-19T07:15:57;6.60;;;6.00;;
59998;SDS011;45859;51.378;6.736;2023-03-19T07:18:22;6.53;;;5.93;;
59998;SDS011;45859;51.378;6.736;2023-03-19T07:20:48;7.03;;;6.00;;
59998;SDS011;45859;51.378;6.736;2023-03-19T07:23:14;7.33;;;6.63;;
59998;SDS011;45859;51.378;6.736;2023-03-19T07:25:39;9.27;;;6.73;;
59998;SDS011;45859;51.378;6.736;2023-03-19T07:28:05;7.83;;;7.03;;
59998;SDS011;45859;51.378;6.736;2023-03-19T07:30:31;7.87;;;6.63;;
59998;SDS011;45859;51.378;6.736;2023-03-19T07:32:57;9.83;;;7.17;;
59998;SDS011;45859;51.378;6.736;2023-03-19T07:35:22;7.90;;;6.63;;
59998;SDS011;45859;51.378;6.736;2023-03-19T07:37:48;7.90;;;7.10;;
59998;SDS011;45859;51.378;6.736;2023-03-19T07:40:14;7.20;;;6.50;;
59998;SDS011;45859;51.378;6.736;2023-03-19T07:42:40;8.07;;;6.53;;
59998;SDS011;45859;51.378;6.736;2023-03-19T07:45:06;6.93;;;6.20;;
59998;SDS011;45859;51.378;6.736;2023-03-19T07:47:32;7.83;;;6.27;;
59998;SDS011;45859;51.378;6.736;2023-03-19T07:49:58;7.47;;;6.73;;
59998;SDS011;45859;51.378;6.736;2023-03-19T07:52:24;7.00;;;5.90;;
59998;SDS011;45859;51.378;6.736;2023-03-19T07:54:50;6.60;;;5.80;;
59998;SDS011;45859;51.378;6.736;2023-03-19T07:57:16;6.63;;;5.93;;
59998;SDS011;45859;51.378;6.736;2023-03-19T07:59:43;8.10;;;6.33;;
59998;SDS011;45859;51.378;6.736;2023-03-19T08:02:12;6.63;;;5.30;;
59998;SDS011;45859;51.378;6.736;2023-03-19T08:04:38;6.80;;;6.20;;
59998;SDS011;45859;51.378;6.736;2023-03-19T08:07:04;6.77;;;5.90;;
59998;SDS011;45859;51.378;6.736;2023-03-19T08:09:30;6.93;;;5.80;;
59998;SDS011;45859;51.378;6.736;2023-03-19T08:11:56;6.37;;;5.87;;
59998;SDS011;45859;51.378;6.736;2023-03-19T08:14:21;7.63;;;5.83;;
59998;SDS011;45859;51.378;6.736;2023-03-19T08:16:48;6.73;;;5.53;;
59998;SDS011;45859;51.378;6.736;2023-03-19T08:19:13;7.00;;;6.30;;
59998;SDS011;45859;51.378;6.736;2023-03-19T08:21:40;6.53;;;5.80;;
59998;SDS011;45859;51.378;6.736;2023-03-19T08:24:06;7.53;;;5.60;;
59998;SDS011;45859;51.378;6.736;2023-03-19T08:26:32;5.80;;;5.20;;
59998;SDS011;45859;51.378;6.736;2023-03-19T08:28:57;6.10;;;5.27;;
59998;SDS011;45859;51.378;6.736;2023-03-19T08:31:23;5.37;;;4.87;;
59998;SDS011;45859;51.378;6.736;2023-03-19T08:33:49;5.37;;;4.43;;
59998;SDS011;45859;51.378;6.736;2023-03-19T08:36:15;6.57;;;5.10;;
59998;SDS011;45859;51.378;6.736;2023-03-19T08:38:41;5.43;;;4.93;;
59998;SDS011;45859;51.378;6.736;2023-03-19T08:41:07;7.10;;;5.27;;
59998;SDS011;45859;51.378;6.736;2023-03-19T08:43:34;7.03;;;5.40;;
59998;SDS011;45859;51.378;6.736;2023-03-19T08:46:01;6.17;;;5.10;;
59998;SDS011;45859;51.378;6.736;2023-03-19T08:48:27;5.03;;;4.63;;
59998;SDS011;45859;51.378;6.736;2023-03-19T08:50:57;5.50;;;5.00;;
59998;SDS011;45859;51.378;6.736;2023-03-19T08:53:25;5.10;;;4.70;;
59998;SDS011;45859;51.378;6.736;2023-03-19T08:55:55;6.30;;;4.90;;
59998;SDS011;45859;51.378;6.736;2023-03-19T08:58:23;5.90;;;4.83;;
59998;SDS011;45859;51.378;6.736;2023-03-19T09:00:50;4.90;;;4.40;;
59998;SDS011;45859;51.378;6.736;2023-03-19T09:03:17;5.90;;;4.63;;
59998;SDS011;45859;51.378;6.736;2023-03-19T09:05:43;6.10;;;4.87;;
59998;SDS011;45859;51.378;6.736;2023-03-19T09:08:09;5.27;;;4.73;;
59998;SDS011;45859;51.378;6.736;2023-03-19T09:10:35;5.23;;;4.83;;
59998;SDS011;45859;51.378;6.736;2023-03-19T09:13:01;5.53;;;5.03;;
59998;SDS011;45859;51.378;6.736;2023-03-19T09:15:26;5.40;;;4.90;;
59998;SDS011;45859;51.378;6.736;2023-03-19T09:17:52;4.90;;;4.40;;
59998;SDS011;45859;51.378;6.736;2023-03-19T09:20:17;6.00;;;4.93;;
59998;SDS011;45859;51.378;6.736;2023-03-19T09:22:43;6.10;;;5.50;;
59998;SDS011;45859;51.378;6.736;2023-03-19T09:25:09;6.03;;;5.43;;
59998;SDS011;45859;51.378;6.736;2023-03-19T09:32:50;7.80;;;7.00;;
59998;SDS011;45859;51.378;6.736;2023-03-19T09:35:16;6.93;;;6.33;;
59998;SDS011;45859;51.378;6.736;2023-03-19T09:37:42;6.60;;;6.00;;
59998;SDS011;45859;51.378;6.736;2023-03-19T09:40:13;6.90;;;6.30;;
59998;SDS011;45859;51.378;6.736;2023-03-19T09:45:18;6.27;;;5.67;;
59998;SDS011;45859;51.378;6.736;2023-03-19T09:47:45;8.27;;;6.00;;
59998;SDS011;45859;51.378;6.736;2023-03-19T09:50:17;5.93;;;5.40;;
59998;SDS011;45859;51.378;6.736;2023-03-19T09:52:49;6.30;;;5.70;;
59998;SDS011;45859;51.378;6.736;2023-03-19T09:58:12;6.27;;;5.67;;
59998;SDS011;45859;51.378;6.736;2023-03-19T10:00:41;6.43;;;5.83;;
59998;SDS011;45859;51.378;6.736;2023-03-19T10:11:32;6.40;;;5.70;;
59998;SDS011;45859;51.378;6.736;2023-03-19T10:17:01;7.27;;;6.20;;
59998;SDS011;45859;51.378;6.736;2023-03-19T10:19:44;6.63;;;5.93;;
59998;SDS011;45859;51.378;6.736;2023-03-19T10:22:18;7.37;;;6.67;;
59998;SDS011;45859;51.378;6.736;2023-03-19T10:24:48;7.00;;;6.30;;
59998;SDS011;45859;51.378;6.736;2023-03-19T10:27:20;7.93;;;7.23;;
59998;SDS011;45859;51.378;6.736;2023-03-19T10:29:50;9.17;;;8.27;;
59998;SDS011;45859;51.378;6.736;2023-03-19T10:34:52;10.77;;;9.57;;
59998;SDS011;45859;51.378;6.736;2023-03-19T10:37:22;11.73;;;9.80;;
59998;SDS011;45859;51.378;6.736;2023-03-19T10:39:51;10.70;;;9.60;;
59998;SDS011;45859;51.378;6.736;2023-03-19T10:44:50;12.40;;;10.50;;
59998;SDS011;45859;51.378;6.736;2023-03-19T10:47:25;12.97;;;10.67;;
59998;SDS011;45859;51.378;6.736;2023-03-19T10:49:51;12.17;;;10.87;;
59998;SDS011;45859;51.378;6.736;2023-03-19T10:52:21;11.40;;;10.20;;
59998;SDS011;45859;51.378;6.736;2023-03-19T10:54:54;13.00;;;11.40;;
59998;SDS011;45859;51.378;6.736;2023-03-19T10:57:26;10.53;;;9.47;;
59998;SDS011;45859;51.378;6.736;2023-03-19T10:59:53;11.17;;;9.47;;
59998;SDS011;45859;51.378;6.736;2023-03-19T11:02:20;10.37;;;9.37;;
59998;SDS011;45859;51.378;6.736;2023-03-19T11:04:49;10.43;;;9.37;;
59998;SDS011;45859;51.378;6.736;2023-03-19T11:07:50;9.93;;;9.03;;
59998;SDS011;45859;51.378;6.736;2023-03-19T11:10:23;9.80;;;8.80;;
59998;SDS011;45859;51.378;6.736;2023-03-19T11:12:51;9.77;;;8.77;;
59998;SDS011;45859;51.378;6.736;2023-03-19T11:15:22;10.03;;;9.03;;
59998;SDS011;45859;51.378;6.736;2023-03-19T11:17:56;12.90;;;9.67;;
59998;SDS011;45859;51.378;6.736;2023-03-19T11:20:31;10.33;;;9.00;;
59998;SDS011;45859;51.378;6.736;2023-03-19T11:22:59;9.73;;;8.70;;
59998;SDS011;45859;51.378;6.736;2023-03-19T11:25:36;9.63;;;8.63;;
59998;SDS011;45859;51.378;6.736;2023-03-19T11:28:11;8.50;;;7.70;;
59998;SDS011;45859;51.378;6.736;2023-03-19T11:33:58;9.77;;;8.00;;
59998;SDS011;45859;51.378;6.736;2023-03-19T11:50:24;10.10;;;8.63;;
59998;SDS011;45859;51.378;6.736;2023-03-19T12:09:16;7.93;;;7.23;;
59998;SDS011;45859;51.378;6.736;2023-03-19T12:23:11;4.50;;;4.10;;
59998;SDS011;45859;51.378;6.736;2023-03-19T12:25:41;4.23;;;3.47;;
59998;SDS011;45859;51.378;6.736;2023-03-19T12:28:42;4.17;;;3.77;;
59998;SDS011;45859;51.378;6.736;2023-03-19T12:32:04;3.57;;;3.27;;
59998;SDS011;45859;51.378;6.736;2023-03-19T12:34:45;4.43;;;2.77;;
59998;SDS011;45859;51.378;6.736;2023-03-19T12:42:51;3.17;;;2.87;;
59998;SDS011;45859;51.378;6.736;2023-03-19T12:45:37;4.40;;;3.23;;
59998;SDS011;45859;51.378;6.736;2023-03-19T12:48:16;5.28;;;3.45;;
59998;SDS011;45859;51.378;6.736;2023-03-19T12:50:49;5.03;;;3.50;;
59998;SDS011;45859;51.378;6.736;2023-03-19T12:54:01;3.95;;;3.50;;
59998;SDS011;45859;51.378;6.736;2023-03-19T13:01:48;3.00;;;2.80;;
59998;SDS011;45859;51.378;6.736;2023-03-19T13:04:19;3.20;;;2.80;;
59998;SDS011;45859;51.378;6.736;2023-03-19T13:06:58;3.57;;;3.17;;
59998;SDS011;45859;51.378;6.736;2023-03-19T13:09:57;3.90;;;2.87;;
59998;SDS011;45859;51.378;6.736;2023-03-19T13:12:29;2.93;;;2.73;;
59998;SDS011;45859;51.378;6.736;2023-03-19T13:15:06;3.73;;;2.50;;
59998;SDS011;45859;51.378;6.736;2023-03-19T13:20:19;3.53;;;3.23;;
59998;SDS011;45859;51.378;6.736;2023-03-19T13:23:08;4.03;;;3.60;;
59998;SDS011;45859;51.378;6.736;2023-03-19T13:25:39;6.93;;;3.70;;
59998;SDS011;45859;51.378;6.736;2023-03-19T13:28:10;4.53;;;3.80;;
59998;SDS011;45859;51.378;6.736;2023-03-19T13:30:56;4.67;;;3.90;;
59998;SDS011;45859;51.378;6.736;2023-03-19T13:33:28;4.33;;;3.90;;
59998;SDS011;45859;51.378;6.736;2023-03-19T13:35:55;3.83;;;3.53;;
59998;SDS011;45859;51.378;6.736;2023-03-19T13:38:25;5.00;;;4.07;;
59998;SDS011;45859;51.378;6.736;2023-03-19T13:40:57;4.40;;;4.00;;
59998;SDS011;45859;51.378;6.736;2023-03-19T13:48:36;4.17;;;3.77;;
59998;SDS011;45859;51.378;6.736;2023-03-19T13:53:40;4.43;;;3.60;;
59998;SDS011;45859;51.378;6.736;2023-03-19T13:56:17;4.27;;;3.43;;
59998;SDS011;45859;51.378;6.736;2023-03-19T13:58:52;4.93;;;4.07;;
59998;SDS011;45859;51.378;6.736;2023-03-19T14:01:43;4.93;;;4.17;;
59998;SDS011;45859;51.378;6.736;2023-03-19T14:04:16;5.23;;;3.57;;
59998;SDS011;45859;51.378;6.736;2023-03-19T14:06:44;4.97;;;3.53;;
59998;SDS011;45859;51.378;6.736;2023-03-19T14:09:35;3.53;;;3.23;;
59998;SDS011;45859;51.378;6.736;2023-03-19T14:17:13;3.97;;;3.57;;
59998;SDS011;45859;51.378;6.736;2023-03-19T14:19:41;4.53;;;3.70;;
59998;SDS011;45859;51.378;6.736;2023-03-19T14:22:18;5.20;;;4.63;;
59998;SDS011;45859;51.378;6.736;2023-03-19T14:25:12;4.73;;;3.83;;
59998;SDS011;45859;51.378;6.736;2023-03-19T14:27:47;5.27;;;3.83;;
59998;SDS011;45859;51.378;6.736;2023-03-19T14:30:43;4.50;;;3.97;;
59998;SDS011;45859;51.378;6.736;2023-03-19T14:33:19;4.67;;;4.10;;
59998;SDS011;45859;51.378;6.736;2023-03-19T14:35:50;5.67;;;4.77;;
59998;SDS011;45859;51.378;6.736;2023-03-19T14:38:39;5.37;;;4.77;;
59998;SDS011;45859;51.378;6.736;2023-03-19T14:41:05;6.10;;;5.50;;
59998;SDS011;45859;51.378;6.736;2023-03-19T14:52:24;5.80;;;5.20;;
59998;SDS011;45859;51.378;6.736;2023-03-19T14:55:01;5.47;;;4.93;;
59998;SDS011;45859;51.378;6.736;2023-03-19T14:57:33;5.57;;;4.73;;
59998;SDS011;45859;51.378;6.736;2023-03-19T15:00:00;6.13;;;5.00;;
59998;SDS011;45859;51.378;6.736;2023-03-19T15:08:14;5.87;;;4.93;;
59998;SDS011;45859;51.378;6.736;2023-03-19T15:16:24;4.93;;;4.00;;
59998;SDS011;45859;51.378;6.736;2023-03-19T15:18:52;4.87;;;3.70;;
59998;SDS011;45859;51.378;6.736;2023-03-19T15:21:19;5.00;;;4.03;;
59998;SDS011;45859;51.378;6.736;2023-03-19T15:23:45;4.67;;;4.03;;
59998;SDS011;45859;51.378;6.736;2023-03-19T15:26:11;4.63;;;3.83;;
59998;SDS011;45859;51.378;6.736;2023-03-19T15:28:45;4.40;;;3.97;;
59998;SDS011;45859;51.378;6.736;2023-03-19T15:31:15;4.07;;;3.23;;
59998;SDS011;45859;51.378;6.736;2023-03-19T15:33:42;4.77;;;3.57;;
59998;SDS011;45859;51.378;6.736;2023-03-19T15:36:12;3.87;;;3.13;;
59998;SDS011;45859;51.378;6.736;2023-03-19T15:41:25;5.13;;;3.17;;
59998;SDS011;45859;51.378;6.736;2023-03-19T15:43:53;4.17;;;2.93;;
59998;SDS011;45859;51.378;6.736;2023-03-19T15:46:21;3.87;;;2.70;;
59998;SDS011;45859;51.378;6.736;2023-03-19T15:49:07;4.55;;;3.20;;
59998;SDS011;45859;51.378;6.736;2023-03-19T15:51:44;4.13;;;3.50;;
59998;SDS011;45859;51.378;6.736;2023-03-19T15:54:15;6.90;;;3.50;;
59998;SDS011;45859;51.378;6.736;2023-03-19T15:56:41;4.87;;;3.83;;
59998;SDS011;45859;51.378;6.736;2023-03-19T15:59:07;5.23;;;4.60;;
59998;SDS011;45859;51.378;6.736;2023-03-19T16:01:34;5.20;;;4.03;;
59998;SDS011;45859;51.378;6.736;2023-03-19T16:04:01;5.30;;;4.17;;
59998;SDS011;45859;51.378;6.736;2023-03-19T16:06:31;5.00;;;4.10;;
59998;SDS011;45859;51.378;6.736;2023-03-19T16:11:52;3.78;;;3.35;;
59998;SDS011;45859;51.378;6.736;2023-03-19T16:14:22;4.67;;;3.57;;
59998;SDS011;45859;51.378;6.736;2023-03-19T16:17:14;6.40;;;5.10;;
59998;SDS011;45859;51.378;6.736;2023-03-19T16:19:51;6.10;;;4.47;;
59998;SDS011;45859;51.378;6.736;2023-03-19T16:22:20;4.67;;;4.00;;
59998;SDS011;45859;51.378;6.736;2023-03-19T16:24:52;5.90;;;4.40;;
59998;SDS011;45859;51.378;6.736;2023-03-19T16:27:36;4.83;;;4.10;;
59998;SDS011;45859;51.378;6.736;2023-03-19T16:30:25;6.53;;;5.10;;
59998;SDS011;45859;51.378;6.736;2023-03-19T16:33:00;4.63;;;3.47;;
59998;SDS011;45859;51.378;6.736;2023-03-19T16:35:28;4.10;;;3.53;;
59998;SDS011;45859;51.378;6.736;2023-03-19T16:40:46;3.78;;;3.20;;
59998;SDS011;45859;51.378;6.736;2023-03-19T16:43:20;4.47;;;4.07;;
59998;SDS011;45859;51.378;6.736;2023-03-19T16:45:51;6.03;;;4.73;;
59998;SDS011;45859;51.378;6.736;2023-03-19T16:48:27;5.35;;;4.30;;
59998;SDS011;45859;51.378;6.736;2023-03-19T16:50:53;5.97;;;4.27;;
59998;SDS011;45859;51.378;6.736;2023-03-19T16:53:25;5.03;;;3.87;;
59998;SDS011;45859;51.378;6.736;2023-03-19T16:55:54;4.57;;;4.17;;
59998;SDS011;45859;51.378;6.736;2023-03-19T16:58:34;5.33;;;4.73;;
59998;SDS011;45859;51.378;6.736;2023-03-19T17:01:01;5.28;;;4.75;;
59998;SDS011;45859;51.378;6.736;2023-03-19T17:03:36;5.63;;;4.87;;
59998;SDS011;45859;51.378;6.736;2023-03-19T17:06:01;5.63;;;4.83;;
59998;SDS011;45859;51.378;6.736;2023-03-19T17:08:27;7.43;;;5.10;;
59998;SDS011;45859;51.378;6.736;2023-03-19T17:10:53;6.07;;;5.47;;
59998;SDS011;45859;51.378;6.736;2023-03-19T17:15:47;6.57;;;4.90;;